Time;durP1;ratioP1;P1;durP2;ratioP2;P2;SDS_P1;SDS_P2;PMS_P1;PMS_P2;Temp;Humidity;BMP_temperature;BMP_pressure;BME280_temperature;BME280_humidity;BME280_pressure;Samples;Min_cycle;Max_cycle;Signal;HPM_P1;HPM_P2
2022/08/11 00:00:32;;;;;;;4.80;4.40;;;17.10;99.90;;;;;;5052266;28;20229;-79
2022/08/11 00:03:06;;;;;;;4.67;4.37;;;17.00;99.90;;;;;;5047113;28;20649;-79
2022/08/11 00:05:44;;;;;;;5.03;4.53;;;17.00;99.90;;;;;;5052032;28;20195;-79
2022/08/11 00:08:11;;;;;;;4.63;4.23;;;16.90;99.90;;;;;;5038226;28;20191;-79
2022/08/11 00:10:39;;;;;;;4.60;4.30;;;16.90;99.90;;;;;;5044533;28;20566;-79
2022/08/11 00:13:07;;;;;;;5.10;4.70;;;16.80;99.90;;;;;;5050131;28;20215;-78
2022/08/11 00:15:40;;;;;;;4.77;4.40;;;16.80;99.90;;;;;;5048562;28;20291;-79
2022/08/11 00:18:09;;;;;;;5.10;4.70;;;16.80;99.90;;;;;;5050353;28;20265;-79
2022/08/11 00:20:41;;;;;;;4.80;4.50;;;16.70;99.90;;;;;;5046620;28;20264;-79
2022/08/11 00:23:11;;;;;;;4.60;4.30;;;16.70;99.90;;;;;;5044662;28;20268;-79
2022/08/11 00:25:41;;;;;;;5.00;4.70;;;16.70;99.90;;;;;;5044060;28;20604;-79
2022/08/11 00:28:23;;;;;;;4.90;4.60;;;16.60;99.90;;;;;;5043229;28;20264;-79
2022/08/11 00:30:51;;;;;;;5.47;4.93;;;16.60;99.90;;;;;;5047015;28;20617;-79
2022/08/11 00:33:19;;;;;;;5.20;4.80;;;16.60;99.90;;;;;;5047332;28;20214;-79
2022/08/11 00:35:49;;;;;;;5.00;4.63;;;16.50;99.90;;;;;;5046519;28;20199;-79
2022/08/11 00:38:17;;;;;;;5.10;4.70;;;16.50;99.90;;;;;;5049813;28;20280;-78
2022/08/11 00:40:52;;;;;;;4.53;4.23;;;16.50;99.90;;;;;;5048221;28;20198;-78
2022/08/11 00:43:25;;;;;;;4.90;4.60;;;16.40;99.90;;;;;;5043150;28;20226;-79
2022/08/11 00:46:21;;;;;;;5.00;4.50;;;16.40;99.90;;;;;;5049131;28;20194;-78
2022/08/11 00:48:59;;;;;;;5.17;4.67;;;16.40;99.90;;;;;;5048521;28;20188;-79
2022/08/11 00:51:42;;;;;;;4.80;4.40;;;16.30;99.90;;;;;;5046669;28;20201;-79
2022/08/11 00:54:38;;;;;;;5.30;4.60;;;16.30;99.90;;;;;;5034949;28;20195;-79
2022/08/11 00:57:30;;;;;;;5.10;4.70;;;16.30;99.90;;;;;;5042796;28;20215;-79
2022/08/11 01:00:13;;;;;;;5.20;4.80;;;16.20;99.90;;;;;;5047783;28;20237;-79
2022/08/11 01:02:56;;;;;;;4.70;4.40;;;16.20;99.90;;;;;;5047014;28;20766;-80
2022/08/11 01:05:40;;;;;;;4.80;4.50;;;16.20;99.90;;;;;;5038486;28;20223;-79
2022/08/11 01:09:05;;;;;;;4.93;4.60;;;16.10;99.90;;;;;;5049627;28;20263;-79
2022/08/11 01:11:56;;;;;;;5.40;4.90;;;16.10;99.90;;;;;;5042033;28;20226;-79
2022/08/11 01:15:01;;;;;;;4.77;4.47;;;16.10;99.90;;;;;;5048783;28;20194;-81
2022/08/11 01:18:10;;;;;;;5.30;4.90;;;16.00;99.90;;;;;;5030201;28;20276;-79
2022/08/11 01:20:59;;;;;;;5.20;4.80;;;16.00;99.90;;;;;;5050737;28;20282;-79
2022/08/11 01:24:14;;;;;;;5.40;5.00;;;15.90;99.90;;;;;;5049421;28;20301;-79
2022/08/11 01:27:04;;;;;;;5.03;4.73;;;15.90;99.90;;;;;;5024450;28;20745;-79
2022/08/11 01:30:07;;;;;;;5.10;4.70;;;15.90;99.90;;;;;;5050465;28;20218;-79
2022/08/11 01:33:07;;;;;;;5.10;4.80;;;15.90;99.90;;;;;;5048453;28;20218;-79
2022/08/11 01:36:01;;;;;;;5.17;4.77;;;15.90;99.90;;;;;;5047143;28;20199;-79
2022/08/11 01:38:58;;;;;;;5.17;4.77;;;15.90;99.90;;;;;;5046085;28;20243;-79
2022/08/11 01:45:06;;;;;;;5.30;4.90;;;15.90;99.90;;;;;;5044119;28;20195;-79
2022/08/11 01:47:52;;;;;;;5.10;4.80;;;15.80;99.90;;;;;;5048724;28;20203;-79
2022/08/11 01:50:28;;;;;;;4.77;4.47;;;15.80;99.90;;;;;;5043537;28;20201;-79
2022/08/11 01:53:10;;;;;;;4.80;4.40;;;15.80;99.90;;;;;;5047745;28;20275;-79
2022/08/11 01:55:43;;;;;;;5.00;4.60;;;15.80;99.90;;;;;;5050725;28;20691;-79
2022/08/11 01:58:19;;;;;;;5.50;5.10;;;15.70;99.90;;;;;;5043089;28;20191;-78
2022/08/11 02:00:54;;;;;;;5.00;4.60;;;15.70;99.90;;;;;;5050310;28;20221;-79
2022/08/11 02:03:28;;;;;;;4.90;4.60;;;15.60;99.90;;;;;;5048023;28;20211;-78
2022/08/11 02:06:53;;;;;;;5.30;4.90;;;15.60;99.90;;;;;;5045541;28;20246;-79
2022/08/11 02:08:58;;;;;;;5.30;4.90;;;15.60;99.90;;;;;;5044714;28;20726;-79
2022/08/11 02:11:29;;;;;;;5.20;4.80;;;15.60;99.90;;;;;;5049863;28;20204;-79
2022/08/11 02:14:07;;;;;;;5.63;5.13;;;15.50;99.90;;;;;;5047939;28;20289;-78
2022/08/11 02:16:48;;;;;;;5.60;5.20;;;15.50;99.90;;;;;;5052848;28;20745;-79
2022/08/11 02:25:06;;;;;;;5.70;5.20;;;15.50;99.90;;;;;;5044460;28;20199;-79
2022/08/11 02:27:40;;;;;;;5.57;5.07;;;15.50;99.90;;;;;;5050627;28;20195;-79
2022/08/11 02:30:12;;;;;;;5.60;5.20;;;15.40;99.90;;;;;;5047659;28;20258;-79
2022/08/11 02:35:44;;;;;;;5.43;5.03;;;15.40;99.90;;;;;;5048786;28;20208;-80
2022/08/11 02:38:20;;;;;;;5.50;5.00;;;15.30;99.90;;;;;;5045977;28;20193;-79
2022/08/11 02:40:58;;;;;;;5.10;4.80;;;15.30;99.90;;;;;;5049614;28;20210;-79
2022/08/11 02:43:34;;;;;;;6.10;5.50;;;15.30;99.90;;;;;;5048863;28;20228;-79
2022/08/11 02:46:17;;;;;;;5.90;5.40;;;15.20;99.90;;;;;;5047661;28;20197;-79
2022/08/11 02:51:44;;;;;;;6.17;5.67;;;15.20;99.90;;;;;;5044431;28;20313;-76
2022/08/11 02:54:21;;;;;;;5.90;5.50;;;15.10;99.90;;;;;;5047292;28;20195;-76
2022/08/11 02:56:57;;;;;;;5.70;5.30;;;15.00;99.90;;;;;;5043957;28;20207;-78
2022/08/11 03:02:29;;;;;;;5.40;5.00;;;14.90;99.90;;;;;;5034446;28;20223;-78
2022/08/11 03:05:06;;;;;;;5.70;5.20;;;14.80;99.90;;;;;;5044203;28;20196;-78
2022/08/11 03:07:42;;;;;;;6.00;5.60;;;14.80;99.90;;;;;;5045574;28;20212;-75
2022/08/11 03:10:17;;;;;;;6.03;5.53;;;14.70;99.90;;;;;;5040364;28;20685;-75
2022/08/11 03:18:44;;;;;;;5.93;5.53;;;14.50;99.90;;;;;;5046614;28;20213;-75
2022/08/11 03:21:36;;;;;;;5.60;5.20;;;14.40;99.90;;;;;;5044362;28;20200;-75
2022/08/11 03:24:08;;;;;;;6.20;5.70;;;14.40;99.90;;;;;;5045786;28;20234;-75
2022/08/11 03:26:47;;;;;;;5.80;5.40;;;14.40;99.90;;;;;;5046033;28;20203;-75
2022/08/11 03:29:23;;;;;;;6.10;5.70;;;14.40;99.90;;;;;;5050652;28;20209;-75
2022/08/11 03:31:59;;;;;;;5.80;5.40;;;14.40;99.90;;;;;;5047537;28;20227;-76
2022/08/11 03:34:27;;;;;;;5.70;5.30;;;14.40;99.90;;;;;;5048191;28;20288;-75
2022/08/11 03:37:11;;;;;;;5.87;5.33;;;14.40;99.90;;;;;;5050473;28;20594;-75
2022/08/11 03:39:48;;;;;;;5.67;5.27;;;14.30;99.90;;;;;;5044221;28;20389;-75
2022/08/11 03:42:24;;;;;;;5.60;5.20;;;14.20;99.90;;;;;;5044820;28;20220;-75
2022/08/11 03:45:05;;;;;;;5.90;5.50;;;14.20;99.90;;;;;;5048591;28;20609;-75
2022/08/11 03:47:49;;;;;;;5.77;5.37;;;14.20;99.90;;;;;;5046195;28;20200;-75
2022/08/11 03:50:30;;;;;;;5.90;5.50;;;14.20;99.90;;;;;;5043723;28;20218;-75
2022/08/11 03:53:12;;;;;;;5.93;5.53;;;14.20;99.90;;;;;;5045052;28;20219;-75
2022/08/11 03:56:10;;;;;;;5.83;5.40;;;14.20;99.90;;;;;;5048746;28;20190;-75
2022/08/11 03:59:16;;;;;;;6.40;5.80;;;14.10;99.90;;;;;;5043364;28;20254;-75
2022/08/11 04:02:09;;;;;;;6.87;6.00;;;14.10;99.90;;;;;;5044656;28;20560;-75
2022/08/11 04:05:26;;;;;;;6.57;6.07;;;14.10;99.90;;;;;;5043997;28;20194;-75
2022/08/11 04:08:26;;;;;;;6.47;5.87;;;14.00;99.90;;;;;;5040960;28;20602;-75
2022/08/11 04:11:22;;;;;;;6.27;5.87;;;14.00;99.90;;;;;;5045829;28;20193;-75
2022/08/11 04:17:46;;;;;;;6.43;5.93;;;13.90;99.90;;;;;;5030893;28;20208;-75
2022/08/11 04:20:49;;;;;;;6.50;6.07;;;13.80;99.90;;;;;;5042834;28;20210;-75
2022/08/11 04:23:25;;;;;;;6.53;6.03;;;13.90;99.90;;;;;;5044279;28;20218;-76
2022/08/11 04:26:26;;;;;;;6.07;5.67;;;13.90;99.90;;;;;;5044619;28;20201;-75
2022/08/11 04:29:03;;;;;;;6.10;5.70;;;13.90;99.90;;;;;;5020143;28;20708;-75
2022/08/11 04:31:53;;;;;;;6.43;6.03;;;13.90;99.90;;;;;;5043531;28;20194;-75
2022/08/11 04:34:54;;;;;;;6.20;5.70;;;13.90;99.90;;;;;;5036710;28;20260;-75
2022/08/11 04:37:37;;;;;;;6.10;5.70;;;13.80;99.90;;;;;;5045001;28;20213;-75
2022/08/11 04:40:43;;;;;;;7.03;6.40;;;14.00;99.90;;;;;;5045283;28;20207;-76
2022/08/11 04:43:45;;;;;;;6.83;6.23;;;14.00;99.90;;;;;;5045966;28;20222;-75
2022/08/11 04:46:47;;;;;;;7.43;6.83;;;14.00;99.90;;;;;;5043688;28;20193;-75
2022/08/11 05:02:30;;;;;;;7.00;6.50;;;14.40;99.90;;;;;;5044793;28;20230;-74
2022/08/11 05:08:29;;;;;;;6.53;6.13;;;14.60;99.90;;;;;;5039614;28;20195;-75
2022/08/11 05:11:11;;;;;;;6.50;6.00;;;14.70;99.90;;;;;;5045867;28;20209;-75
2022/08/11 05:36:28;;;;;;;6.30;5.90;;;16.80;99.90;;;;;;5037688;28;20205;-74
2022/08/11 05:58:33;;;;;;;6.47;6.07;;;18.70;99.90;;;;;;5046824;28;20562;-76
2022/08/11 06:01:01;;;;;;;5.10;4.70;;;18.50;99.90;;;;;;5052924;28;20210;-76
2022/08/11 06:03:30;;;;;;;3.20;2.90;;;18.40;99.90;;;;;;5048728;28;20208;-75
2022/08/11 06:05:58;;;;;;;6.47;5.97;;;18.30;99.90;;;;;;5046720;28;20203;-76
2022/08/11 06:08:30;;;;;;;3.83;3.53;;;18.20;99.90;;;;;;5052938;28;20219;-75
2022/08/11 06:11:02;;;;;;;6.60;6.07;;;18.20;99.90;;;;;;5046675;28;20553;-76
2022/08/11 06:13:31;;;;;;;4.20;3.80;;;18.10;99.90;;;;;;5052745;28;20273;-76
2022/08/11 06:16:00;;;;;;;4.20;3.80;;;18.10;99.90;;;;;;5049319;28;20666;-76
2022/08/11 06:18:28;;;;;;;6.60;6.10;;;18.30;99.90;;;;;;5051304;28;20354;-76
2022/08/11 06:20:57;;;;;;;5.70;5.20;;;18.40;99.90;;;;;;5052101;28;20233;-75
2022/08/11 06:23:30;;;;;;;3.50;3.20;;;18.50;99.90;;;;;;5046348;28;20727;-76
2022/08/11 06:25:59;;;;;;;6.10;5.60;;;18.50;99.90;;;;;;5045727;28;20653;-76
2022/08/11 06:28:32;;;;;;;3.73;3.40;;;18.70;99.90;;;;;;5046349;28;20196;-76
2022/08/11 06:30:59;;;;;;;2.80;2.60;;;18.90;99.90;;;;;;5050036;28;20207;-77
2022/08/11 06:33:33;;;;;;;8.53;6.60;;;19.00;99.90;;;;;;5049345;28;20636;-76
2022/08/11 06:36:06;;;;;;;7.20;6.47;;;19.00;99.90;;;;;;5048401;28;20251;-76
2022/08/11 06:38:51;;;;;;;7.00;6.40;;;19.00;99.90;;;;;;5048872;28;20561;-78
2022/08/11 06:41:32;;;;;;;7.83;7.13;;;19.00;99.90;;;;;;5043096;28;20255;-75
2022/08/11 06:44:27;;;;;;;5.73;3.70;;;19.20;99.90;;;;;;5046495;28;20206;-77
2022/08/11 06:46:59;;;;;;;3.13;2.80;;;19.50;99.90;;;;;;5047768;28;20244;-76
2022/08/11 06:52:32;;;;;;;4.70;3.70;;;19.90;99.90;;;;;;5017285;28;20217;-76
2022/08/11 06:55:05;;;;;;;4.73;3.17;;;20.00;99.90;;;;;;5047646;28;20619;-76
2022/08/11 07:00:28;;;;;;;3.63;2.93;;;20.50;99.90;;;;;;5041687;28;20280;-76
2022/08/11 07:03:00;;;;;;;3.43;3.10;;;21.00;99.90;;;;;;5042224;28;20282;-77
2022/08/11 07:05:42;;;;;;;5.23;3.23;;;21.30;99.90;;;;;;5050937;28;20191;-76
2022/08/11 07:17:42;;;;;;;4.40;4.00;;;22.10;99.90;;;;;;5047174;28;20270;-76
2022/08/11 07:28:55;;;;;;;5.80;3.53;;;23.00;99.90;;;;;;5047294;28;20207;-76
2022/08/11 07:31:29;;;;;;;4.90;4.47;;;23.50;99.90;;;;;;5039617;28;20253;-77
2022/08/11 07:34:13;;;;;;;8.00;5.90;;;23.70;99.90;;;;;;5046404;28;20196;-77
2022/08/11 07:36:44;;;;;;;6.77;6.27;;;24.20;99.90;;;;;;5046671;28;20196;-76
2022/08/11 07:39:17;;;;;;;7.33;6.63;;;24.60;99.60;;;;;;5049683;28;20195;-77
2022/08/11 07:41:45;;;;;;;5.87;5.27;;;24.80;99.40;;;;;;5051084;28;20642;-76
2022/08/11 07:44:15;;;;;;;8.63;6.30;;;25.40;99.40;;;;;;5048794;28;20278;-77
2022/08/11 07:52:32;;;;;;;7.10;6.40;;;26.30;96.90;;;;;;5038344;28;20246;-76
2022/08/11 07:55:01;;;;;;;6.53;6.00;;;26.50;96.30;;;;;;5042746;28;20211;-77
2022/08/11 08:19:37;;;;;;;5.07;4.57;;;27.50;93.00;;;;;;5046570;28;20657;-78
2022/08/11 08:22:05;;;;;;;5.10;4.70;;;27.60;93.80;;;;;;5048179;28;20273;-77
2022/08/11 08:24:32;;;;;;;4.80;4.40;;;27.90;92.90;;;;;;5045403;28;20199;-77
2022/08/11 08:26:59;;;;;;;6.40;5.80;;;28.00;92.40;;;;;;5044257;28;20221;-76
2022/08/11 08:32:15;;;;;;;6.10;5.60;;;28.30;92.30;;;;;;5044071;28;20214;-77
2022/08/11 08:34:43;;;;;;;6.50;5.90;;;28.00;92.10;;;;;;5045765;28;20191;-77
2022/08/11 08:37:11;;;;;;;5.93;5.53;;;28.40;91.20;;;;;;5045108;28;20249;-76
2022/08/11 08:39:38;;;;;;;6.37;5.83;;;28.50;91.80;;;;;;5044076;28;20257;-76
2022/08/11 08:42:10;;;;;;;6.57;6.07;;;28.80;91.20;;;;;;5046900;28;20244;-76
2022/08/11 08:44:42;;;;;;;8.20;5.53;;;28.60;90.70;;;;;;5044117;28;20704;-76
2022/08/11 08:47:13;;;;;;;6.20;5.70;;;28.90;90.10;;;;;;5050134;28;20265;-77
2022/08/11 08:49:48;;;;;;;7.17;5.70;;;29.00;89.90;;;;;;5051452;28;20233;-77
2022/08/11 08:52:20;;;;;;;6.13;5.63;;;28.90;83.40;;;;;;5051702;28;20244;-77
2022/08/11 08:54:52;;;;;;;5.80;5.30;;;28.90;79.40;;;;;;5043936;28;20800;-77
2022/08/11 08:57:22;;;;;;;5.57;5.17;;;29.00;82.80;;;;;;5049758;28;20243;-76
2022/08/11 08:59:51;;;;;;;6.03;5.40;;;29.50;81.50;;;;;;5048700;28;20606;-77
2022/08/11 09:02:19;;;;;;;10.13;5.40;;;29.20;76.90;;;;;;5045861;28;20724;-77
2022/08/11 09:04:47;;;;;;;6.83;5.77;;;29.20;77.30;;;;;;5044576;28;20199;-78
2022/08/11 09:07:17;;;;;;;5.77;2.70;;;28.60;77.90;;;;;;5045597;28;20237;-76
2022/08/11 09:09:47;;;;;;;3.27;2.70;;;28.70;81.90;;;;;;5043265;28;20208;-77
2022/08/11 09:12:15;;;;;;;4.00;3.70;;;29.20;80.90;;;;;;5047755;28;20617;-77
2022/08/11 09:15:02;;;;;;;4.77;4.37;;;29.00;81.50;;;;;;5042491;28;20204;-77
2022/08/11 09:17:31;;;;;;;6.10;5.60;;;28.90;81.10;;;;;;5047799;28;20199;-78
2022/08/11 09:20:02;;;;;;;5.80;5.40;;;29.20;82.80;;;;;;5049712;28;20245;-77
2022/08/11 09:28:03;;;;;;;5.53;5.03;;;29.70;76.80;;;;;;5045223;28;20207;-77
2022/08/11 09:30:31;;;;;;;5.80;5.40;;;29.20;77.60;;;;;;5047451;28;20257;-76
2022/08/11 09:33:01;;;;;;;4.53;2.50;;;29.00;78.40;;;;;;5045365;28;20639;-77
2022/08/11 09:35:30;;;;;;;5.90;4.47;;;29.10;75.50;;;;;;5050283;28;20199;-77
2022/08/11 09:40:47;;;;;;;5.77;5.40;;;28.60;74.40;;;;;;5047638;28;20208;-76
2022/08/11 09:46:03;;;;;;;5.67;5.17;;;28.50;75.30;;;;;;5055210;28;20195;-78
2022/08/11 09:48:35;;;;;;;6.17;5.10;;;29.10;75.00;;;;;;5048287;28;20570;-78
2022/08/11 09:51:03;;;;;;;5.97;4.70;;;29.30;73.20;;;;;;5046287;28;20712;-78
2022/08/11 09:53:36;;;;;;;2.90;2.43;;;29.00;72.20;;;;;;5051616;28;20250;-77
2022/08/11 09:58:12;;;;;;;6.10;5.50;;;28.60;74.90;;;;;;5047670;28;20200;-78
2022/08/11 09:58:50;;;;;;;5.43;5.10;;;28.30;73.70;;;;;;5050081;28;20562;-77
2022/08/11 10:01:26;;;;;;;4.73;2.50;;;28.70;75.00;;;;;;5047506;28;20180;-78
2022/08/11 10:03:58;;;;;;;3.57;3.37;;;29.10;73.70;;;;;;5044919;28;20223;-77
2022/08/11 10:09:14;;;;;;;4.40;4.00;;;29.20;75.40;;;;;;5045381;28;20194;-78
2022/08/11 10:11:41;;;;;;;4.70;4.30;;;28.60;70.90;;;;;;5049646;28;20227;-78
2022/08/11 10:16:56;;;;;;;5.97;5.47;;;28.60;71.80;;;;;;5051381;28;20322;-77
2022/08/11 10:19:24;;;;;;;3.00;2.80;;;28.50;73.00;;;;;;5047979;28;20199;-77
2022/08/11 10:27:19;;;;;;;4.63;2.27;;;28.90;72.00;;;;;;5044749;28;20613;-78
2022/08/11 10:35:18;;;;;;;4.03;3.57;;;28.20;73.30;;;;;;5038267;28;20195;-77
2022/08/11 10:37:47;;;;;;;4.10;2.30;;;27.70;74.50;;;;;;5042623;28;20279;-78
2022/08/11 10:40:17;;;;;;;5.37;5.07;;;28.00;73.10;;;;;;5051081;28;20200;-77
2022/08/11 10:43:01;;;;;;;3.27;2.40;;;28.00;76.00;;;;;;5043585;28;20219;-78
2022/08/11 10:48:15;;;;;;;2.70;2.47;;;28.40;73.90;;;;;;5040563;28;20199;-77
2022/08/11 10:59:03;;;;;;;3.40;3.10;;;28.30;71.50;;;;;;5050253;28;20203;-78
2022/08/11 11:01:32;;;;;;;4.27;3.90;;;28.20;72.50;;;;;;5043647;28;20195;-77
2022/08/11 11:04:02;;;;;;;5.67;3.80;;;28.00;71.80;;;;;;5051559;28;20679;-77
2022/08/11 11:06:35;;;;;;;4.13;3.83;;;28.00;73.60;;;;;;5042047;28;20199;-77
2022/08/11 11:09:05;;;;;;;3.20;2.80;;;28.00;72.60;;;;;;5049977;28;20192;-77
2022/08/11 11:19:59;;;;;;;5.30;4.90;;;27.80;74.60;;;;;;5045857;28;20199;-77
2022/08/11 11:22:38;;;;;;;5.17;4.77;;;27.80;73.60;;;;;;5045334;28;20276;-77
2022/08/11 11:25:15;;;;;;;5.10;4.60;;;27.80;74.30;;;;;;5047402;28;20199;-77
2022/08/11 11:27:54;;;;;;;5.97;4.67;;;27.80;74.10;;;;;;5047162;28;20261;-77
2022/08/11 11:30:27;;;;;;;4.93;4.63;;;27.80;72.70;;;;;;5046227;28;20215;-77
2022/08/11 11:33:04;;;;;;;5.27;4.87;;;27.80;73.70;;;;;;5050006;28;20219;-78
2022/08/11 11:35:43;;;;;;;5.50;5.10;;;27.80;73.90;;;;;;5047604;28;20226;-77
2022/08/11 11:38:11;;;;;;;2.27;2.07;;;27.70;73.40;;;;;;5038306;28;20213;-77
2022/08/11 11:40:39;;;;;;;4.90;4.17;;;27.50;71.80;;;;;;5046179;28;20610;-77
2022/08/11 11:43:09;;;;;;;3.60;2.60;;;27.50;74.00;;;;;;5072630;23;20603;-77
2022/08/11 11:45:36;;;;;;;2.50;2.30;;;27.60;72.10;;;;;;5045178;28;20253;-78
2022/08/11 11:48:03;;;;;;;4.97;4.67;;;27.50;73.00;;;;;;5046002;28;20257;-77
2022/08/11 11:50:34;;;;;;;5.40;4.60;;;27.50;73.40;;;;;;5038683;28;20222;-76
2022/08/11 11:53:04;;;;;;;5.10;4.73;;;27.50;71.60;;;;;;5029746;28;20378;-76
2022/08/11 11:55:31;;;;;;;2.40;2.20;;;27.50;72.40;;;;;;5020567;28;20196;-76
2022/08/11 12:03:34;;;;;;;3.37;2.30;;;27.50;73.30;;;;;;5032107;28;20203;-79
2022/08/11 12:06:02;;;;;;;3.10;2.13;;;27.50;72.40;;;;;;5032749;28;20267;-76
2022/08/11 12:08:29;;;;;;;5.70;5.30;;;27.50;72.10;;;;;;5033243;28;20219;-78
2022/08/11 12:13:42;;;;;;;5.47;5.07;;;27.30;71.10;;;;;;5029828;28;20223;-76
2022/08/11 12:16:13;;;;;;;6.00;5.60;;;27.20;72.00;;;;;;5014306;28;20331;-77
2022/08/11 12:18:42;;;;;;;8.17;4.90;;;27.20;73.20;;;;;;5021900;28;20193;-77
2022/08/11 12:21:10;;;;;;;4.27;3.97;;;27.20;72.70;;;;;;5013825;28;20239;-77
2022/08/11 12:29:11;;;;;;;4.93;4.63;;;27.50;72.50;;;;;;5020898;28;20200;-77
2022/08/11 12:31:41;;;;;;;3.83;2.43;;;27.60;71.70;;;;;;5020436;28;20620;-77
2022/08/11 12:34:10;;;;;;;3.93;2.43;;;27.60;73.10;;;;;;5021622;28;20208;-77
2022/08/11 12:36:39;;;;;;;3.33;2.30;;;27.60;71.50;;;;;;5023843;28;20254;-77
2022/08/11 12:39:09;;;;;;;3.10;2.17;;;27.50;70.90;;;;;;5019384;28;20245;-77
2022/08/11 12:47:16;;;;;;;3.77;2.17;;;27.60;72.10;;;;;;5013904;28;20279;-76
2022/08/11 12:52:37;;;;;;;3.47;2.27;;;27.50;73.40;;;;;;5022370;28;20244;-78
2022/08/11 12:55:09;;;;;;;3.67;2.20;;;27.50;71.10;;;;;;5021992;28;20299;-78
2022/08/11 13:06:01;;;;;;;2.27;2.07;;;27.60;72.10;;;;;;5029410;28;20574;-80
2022/08/11 13:08:31;;;;;;;2.63;2.20;;;27.50;71.10;;;;;;5023259;28;20207;-78
2022/08/11 13:13:47;;;;;;;5.20;4.70;;;27.50;72.70;;;;;;5020195;28;20613;-78
2022/08/11 13:16:15;;;;;;;5.23;4.80;;;27.50;72.00;;;;;;5025743;28;20254;-77
2022/08/11 13:18:44;;;;;;;4.90;4.50;;;27.50;71.10;;;;;;5026131;28;20616;-77
2022/08/11 13:21:13;;;;;;;5.10;4.70;;;27.50;71.30;;;;;;5024755;28;20208;-78
2022/08/11 13:23:41;;;;;;;2.73;2.10;;;27.50;71.10;;;;;;5024381;28;20216;-77
2022/08/11 13:26:08;;;;;;;3.13;2.20;;;27.50;72.30;;;;;;5026644;28;20196;-77
2022/08/11 13:28:36;;;;;;;2.43;2.10;;;27.50;72.70;;;;;;5024895;28;20278;-77
2022/08/11 13:31:13;;;;;;;4.70;2.53;;;27.50;72.20;;;;;;5021058;28;20204;-77
2022/08/11 13:33:45;;;;;;;2.73;2.47;;;27.50;70.40;;;;;;5029091;28;20584;-77
2022/08/11 13:36:14;;;;;;;3.40;2.20;;;27.50;71.40;;;;;;5016601;28;20192;-79
2022/08/11 13:38:43;;;;;;;4.60;2.07;;;27.50;71.30;;;;;;5020550;28;20231;-77
2022/08/11 13:43:52;;;;;;;2.30;2.10;;;27.60;69.90;;;;;;5022629;28;20223;-79
2022/08/11 13:46:21;;;;;;;3.72;2.45;;;27.60;70.50;;;;;;5020694;28;20529;-77
2022/08/11 13:48:50;;;;;;;3.90;2.37;;;27.50;70.40;;;;;;5018579;28;20208;-78
2022/08/11 13:54:03;;;;;;;4.17;2.17;;;27.60;70.60;;;;;;5021346;28;20235;-78
2022/08/11 13:56:31;;;;;;;3.63;2.40;;;27.70;71.10;;;;;;5023106;28;20196;-78
2022/08/11 13:58:59;;;;;;;4.07;2.23;;;27.70;71.20;;;;;;5017561;28;20201;-79
2022/08/11 14:01:30;;;;;;;2.67;2.20;;;27.60;71.20;;;;;;5016384;28;20205;-77
2022/08/11 14:04:05;;;;;;;2.33;2.00;;;27.60;70.50;;;;;;5031868;28;20792;-79
2022/08/11 14:06:34;;;;;;;2.67;2.13;;;27.70;71.00;;;;;;5024526;28;20408;-77
2022/08/11 14:09:03;;;;;;;2.20;2.00;;;27.70;70.70;;;;;;5027120;28;20200;-79
2022/08/11 14:14:22;;;;;;;4.90;2.30;;;27.80;72.40;;;;;;5014019;28;20184;-77
2022/08/11 14:16:50;;;;;;;2.23;1.87;;;27.80;70.00;;;;;;5026924;28;20188;-78
2022/08/11 14:19:24;;;;;;;2.10;1.90;;;27.90;71.90;;;;;;5026743;28;20264;-78
2022/08/11 14:22:06;;;;;;;3.63;2.27;;;27.80;71.50;;;;;;5024217;28;20630;-79
2022/08/11 14:24:35;;;;;;;3.47;2.27;;;27.80;71.00;;;;;;5028200;28;20193;-79
2022/08/11 14:27:03;;;;;;;2.47;2.27;;;27.80;72.00;;;;;;5024970;28;20274;-78
2022/08/11 14:29:31;;;;;;;3.37;3.07;;;27.80;72.40;;;;;;5028040;28;20197;-77
2022/08/11 14:32:01;;;;;;;3.47;3.07;;;27.70;71.40;;;;;;5024291;28;20196;-77
2022/08/11 14:34:33;;;;;;;3.93;2.77;;;27.70;71.40;;;;;;5026890;28;20192;-78
2022/08/11 14:37:01;;;;;;;3.13;2.93;;;27.70;72.30;;;;;;5025255;28;20208;-78
2022/08/11 14:39:34;;;;;;;4.30;3.90;;;27.70;72.40;;;;;;5027311;28;20188;-77
2022/08/11 14:47:37;;;;;;;2.50;2.03;;;27.80;71.70;;;;;;5028425;28;20195;-79
2022/08/11 14:50:08;;;;;;;2.27;2.17;;;27.90;72.40;;;;;;5024765;28;20200;-78
2022/08/11 14:52:36;;;;;;;2.17;1.90;;;27.90;70.70;;;;;;5030038;28;20208;-79
2022/08/11 14:57:50;;;;;;;2.57;2.07;;;27.90;69.70;;;;;;4996649;28;20204;-80
2022/08/11 15:00:17;;;;;;;4.57;2.30;;;27.80;70.60;;;;;;4999995;28;20263;-77
2022/08/11 15:05:35;;;;;;;3.40;2.10;;;27.80;71.00;;;;;;5003834;28;20189;-79
2022/08/11 15:08:04;;;;;;;5.07;2.17;;;27.80;71.00;;;;;;4995917;28;20197;-78
2022/08/11 15:10:31;;;;;;;2.87;2.40;;;27.90;71.40;;;;;;5012231;28;20204;-78
2022/08/11 15:12:58;;;;;;;2.90;2.03;;;27.90;71.80;;;;;;4994430;28;20251;-77
2022/08/11 15:18:13;;;;;;;2.97;2.53;;;27.80;72.10;;;;;;5005862;28;20196;-78
2022/08/11 15:26:12;;;;;;;4.67;2.13;;;27.70;70.00;;;;;;5022032;28;20673;-77
2022/08/11 15:37:26;;;;;;;5.33;4.93;;;27.60;70.20;;;;;;5020974;28;20211;-77
2022/08/11 15:45:49;;;;;;;4.43;2.30;;;27.50;69.20;;;;;;5016476;28;20215;-79
2022/08/11 15:48:27;;;;;;;2.83;2.63;;;27.50;69.50;;;;;;5013753;28;20209;-78
2022/08/11 15:50:58;;;;;;;2.63;2.20;;;27.50;71.40;;;;;;5001859;28;20268;-77
2022/08/11 15:53:31;;;;;;;2.30;1.93;;;27.40;69.70;;;;;;5018836;28;20908;-77
2022/08/11 15:56:00;;;;;;;2.27;2.07;;;27.40;70.50;;;;;;5026541;28;20195;-77
2022/08/11 16:04:11;;;;;;;2.40;2.13;;;27.40;69.70;;;;;;5004292;28;20224;-79
2022/08/11 16:06:44;;;;;;;2.33;2.00;;;27.30;68.70;;;;;;5010270;28;20235;-79
2022/08/11 16:09:15;;;;;;;3.37;2.27;;;27.40;69.60;;;;;;5012301;28;20212;-79
2022/08/11 16:11:44;;;;;;;3.73;3.50;;;27.40;68.40;;;;;;5015655;28;20204;-78
2022/08/11 16:16:59;;;;;;;3.17;2.10;;;27.30;68.40;;;;;;5019232;28;20272;-78
2022/08/11 16:19:36;;;;;;;2.30;2.10;;;27.30;69.40;;;;;;5019475;28;20200;-78
2022/08/11 16:22:07;;;;;;;3.20;2.07;;;27.30;68.90;;;;;;5008335;28;20228;-80
2022/08/11 16:24:44;;;;;;;2.47;2.27;;;27.30;69.40;;;;;;5021374;28;20200;-79
2022/08/11 16:27:13;;;;;;;2.77;1.90;;;27.30;69.00;;;;;;5007502;28;20192;-78
2022/08/11 16:29:44;;;;;;;3.27;1.83;;;27.30;69.10;;;;;;5023609;28;20200;-77
2022/08/11 16:32:20;;;;;;;2.40;2.20;;;27.40;67.40;;;;;;5019185;28;20212;-78
2022/08/11 16:40:26;;;;;;;2.73;2.10;;;27.30;66.80;;;;;;5034383;28;20196;-78
2022/08/11 16:48:32;;;;;;;4.97;4.57;;;27.10;68.00;;;;;;5013450;28;20668;-79
2022/08/11 16:50:59;;;;;;;4.70;4.30;;;27.10;67.30;;;;;;5014606;28;20232;-79
2022/08/11 16:53:29;;;;;;;5.83;4.60;;;27.00;67.90;;;;;;5024617;28;20223;-79
2022/08/11 16:56:02;;;;;;;4.70;4.27;;;27.00;67.40;;;;;;5023013;28;20226;-76
2022/08/11 17:01:19;;;;;;;4.97;4.53;;;27.00;67.00;;;;;;5012898;28;20179;-77
2022/08/11 17:18:07;;;;;;;5.10;4.60;;;26.80;68.20;;;;;;5024145;28;20684;-77
2022/08/11 17:20:37;;;;;;;4.63;4.23;;;26.70;67.60;;;;;;5007382;28;20197;-82
2022/08/11 17:25:51;;;;;;;4.67;4.37;;;26.60;67.30;;;;;;5018506;28;20760;-79
2022/08/11 17:28:22;;;;;;;4.80;4.40;;;26.60;67.30;;;;;;5028992;28;20230;-80
2022/08/11 17:36:22;;;;;;;4.40;4.03;;;26.40;68.60;;;;;;5016867;28;20633;-77
2022/08/11 17:38:51;;;;;;;4.53;4.13;;;26.30;68.40;;;;;;5018971;28;20228;-80
2022/08/11 17:49:38;;;;;;;4.50;4.03;;;26.00;70.10;;;;;;5052325;28;20190;-78
2022/08/11 18:00:25;;;;;;;4.57;4.27;;;25.80;68.50;;;;;;5034434;28;20202;-78
2022/08/11 18:05:42;;;;;;;4.20;3.90;;;25.60;70.00;;;;;;5039301;28;20204;-79
